Time;durP1;ratioP1;P1;durP2;ratioP2;P2;SDS_P1;SDS_P2;PMS_P1;PMS_P2;Temp;Humidity;BMP_temperature;BMP_pressure;BME280_temperature;BME280_humidity;BME280_pressure;Samples;Min_cycle;Max_cycle;Signal;HPM_P1;HPM_P2
2021/12/04 00:00:40;;;;;;;41.85;25.25;;;4.80;92.30;;;;;;5082122;28;20037;-48
2021/12/04 00:03:10;;;;;;;39.63;24.65;;;4.80;92.40;;;;;;5070034;28;20441;-47
2021/12/04 00:05:39;;;;;;;42.22;25.13;;;4.80;92.40;;;;;;5069949;28;20036;-45
2021/12/04 00:08:06;;;;;;;42.50;24.42;;;4.80;92.30;;;;;;5069969;28;20457;-47
2021/12/04 00:10:33;;;;;;;37.78;24.30;;;4.80;92.30;;;;;;5069640;28;20098;-46
2021/12/04 00:13:00;;;;;;;37.75;24.02;;;4.80;92.30;;;;;;5069992;28;20024;-46
2021/12/04 00:15:27;;;;;;;41.90;23.92;;;4.80;92.30;;;;;;5067018;28;20037;-46
2021/12/04 00:17:56;;;;;;;43.63;27.52;;;4.80;92.40;;;;;;5069866;28;20032;-46
2021/12/04 00:20:30;;;;;;;43.38;26.38;;;4.90;92.30;;;;;;5069687;28;20025;-47
2021/12/04 00:22:59;;;;;;;42.22;24.90;;;4.80;92.30;;;;;;5069656;28;20062;-45
2021/12/04 00:25:29;;;;;;;40.72;25.27;;;4.90;92.30;;;;;;5052764;28;20480;-46
2021/12/04 00:27:56;;;;;;;36.78;23.20;;;4.80;92.40;;;;;;5048865;28;20076;-49
2021/12/04 00:30:25;;;;;;;42.83;24.70;;;4.90;92.30;;;;;;5028696;28;20034;-48
2021/12/04 00:32:59;;;;;;;39.20;23.48;;;4.90;92.30;;;;;;5029450;28;20029;-47
2021/12/04 00:43:14;;;;;;;;;;;4.80;92.30;;;;;;5030138;28;20033;-47
2021/12/04 00:51:34;;;;;;;39.35;24.77;;;4.80;92.30;;;;;;5016774;28;20079;-44
2021/12/04 00:54:01;;;;;;;40.42;24.27;;;4.80;92.30;;;;;;5029180;28;20044;-46
2021/12/04 00:56:28;;;;;;;38.42;23.98;;;4.80;92.30;;;;;;5028697;28;20358;-48
2021/12/04 00:58:55;;;;;;;41.80;23.90;;;4.80;92.30;;;;;;5029027;28;20045;-45
2021/12/04 01:01:22;;;;;;;39.08;24.17;;;4.90;92.30;;;;;;5028549;28;20041;-47
2021/12/04 01:03:48;;;;;;;38.15;22.17;;;4.80;92.30;;;;;;5025388;28;20061;-48
2021/12/04 01:06:15;;;;;;;37.33;21.45;;;4.80;92.30;;;;;;5029108;28;20042;-45
2021/12/04 01:08:42;;;;;;;44.28;22.90;;;4.80;92.30;;;;;;5028970;28;20038;-47
2021/12/04 01:11:09;;;;;;;37.20;23.67;;;4.80;92.30;;;;;;5029253;28;20025;-46
2021/12/04 01:13:36;;;;;;;40.58;24.88;;;4.80;92.30;;;;;;5028888;28;20486;-45
2021/12/04 01:16:05;;;;;;;39.55;23.85;;;4.80;92.30;;;;;;5029393;28;20033;-44
2021/12/04 01:18:34;;;;;;;40.55;22.75;;;4.80;92.30;;;;;;5027845;28;20064;-46
2021/12/04 01:21:01;;;;;;;39.73;21.83;;;4.80;92.30;;;;;;5028072;28;20332;-46
2021/12/04 01:23:28;;;;;;;34.58;22.48;;;4.90;92.30;;;;;;5029092;28;20034;-47
2021/12/04 01:25:55;;;;;;;41.80;21.08;;;4.80;92.20;;;;;;5028170;28;20030;-44
2021/12/04 01:28:22;;;;;;;37.03;21.05;;;4.80;92.20;;;;;;5027865;28;20145;-45
2021/12/04 01:30:48;;;;;;;41.38;21.60;;;4.80;92.30;;;;;;5027806;28;20099;-49
2021/12/04 01:33:15;;;;;;;39.63;22.52;;;4.80;92.20;;;;;;5028180;28;20454;-43
2021/12/04 01:35:42;;;;;;;39.75;21.48;;;4.80;92.30;;;;;;5029219;28;20045;-44
2021/12/04 01:38:10;;;;;;;40.17;21.58;;;4.80;92.30;;;;;;5028596;28;20124;-43
2021/12/04 01:40:38;;;;;;;37.63;21.92;;;4.80;92.40;;;;;;5027850;28;20042;-45
2021/12/04 01:43:05;;;;;;;40.88;22.85;;;4.80;92.30;;;;;;5027742;28;20033;-43
2021/12/04 01:45:31;;;;;;;41.85;21.55;;;4.80;92.40;;;;;;5029098;28;20030;-45
2021/12/04 01:48:01;;;;;;;37.22;23.08;;;4.70;92.40;;;;;;5028833;28;20032;-45
2021/12/04 01:50:31;;;;;;;38.53;20.90;;;4.70;92.40;;;;;;5028870;28;20084;-47
2021/12/04 01:52:59;;;;;;;36.97;21.23;;;4.80;92.40;;;;;;5027382;28;20072;-44
2021/12/04 01:55:32;;;;;;;36.75;21.13;;;4.80;92.40;;;;;;5028548;28;20052;-45
2021/12/04 01:58:03;;;;;;;35.33;20.92;;;4.70;92.40;;;;;;5028611;28;20017;-44
2021/12/04 02:00:32;;;;;;;38.10;21.55;;;4.80;92.40;;;;;;5028537;28;20136;-45
2021/12/04 02:02:59;;;;;;;35.15;20.38;;;4.80;92.40;;;;;;5028686;28;20037;-44
2021/12/04 02:05:26;;;;;;;35.30;21.73;;;4.80;92.40;;;;;;5031908;28;20048;-44
2021/12/04 02:07:53;;;;;;;34.67;21.45;;;4.80;92.50;;;;;;5032554;28;20120;-44
2021/12/04 02:10:20;;;;;;;35.47;21.33;;;4.80;92.50;;;;;;5031098;28;20041;-44
2021/12/04 02:12:48;;;;;;;35.05;22.42;;;4.80;92.50;;;;;;5032257;28;20083;-44
2021/12/04 02:15:17;;;;;;;38.92;21.77;;;4.80;92.40;;;;;;5032005;28;20029;-45
2021/12/04 02:17:48;;;;;;;37.53;23.05;;;4.80;92.40;;;;;;5031146;28;20026;-45
2021/12/04 02:20:21;;;;;;;34.97;22.40;;;4.90;92.40;;;;;;5031983;28;20029;-44
2021/12/04 02:22:48;;;;;;;39.28;22.48;;;4.80;92.30;;;;;;5030600;28;20091;-44
2021/12/04 02:25:16;;;;;;;32.35;22.05;;;4.80;92.40;;;;;;5030680;28;20033;-44
2021/12/04 02:27:43;;;;;;;33.60;21.40;;;4.80;92.40;;;;;;5037951;28;20087;-45
2021/12/04 02:30:23;;;;;;;33.97;21.13;;;4.80;92.30;;;;;;5071138;28;20475;-44
2021/12/04 02:32:52;;;;;;;31.83;20.98;;;4.90;92.30;;;;;;5069133;28;20065;-49
2021/12/04 02:35:19;;;;;;;35.03;21.20;;;4.90;92.30;;;;;;5049499;28;20118;-43
2021/12/04 02:37:47;;;;;;;34.40;21.58;;;4.90;92.20;;;;;;5071015;28;20082;-46
2021/12/04 02:40:17;;;;;;;34.53;20.88;;;4.80;92.20;;;;;;5071678;28;20101;-45
2021/12/04 02:42:45;;;;;;;33.17;20.20;;;4.80;92.30;;;;;;5070991;28;20103;-43
2021/12/04 02:45:13;;;;;;;31.55;20.38;;;4.80;92.20;;;;;;5071297;28;20044;-44
2021/12/04 02:47:41;;;;;;;33.03;20.20;;;4.80;92.10;;;;;;5071602;28;20047;-44
2021/12/04 02:50:10;;;;;;;29.05;19.73;;;4.80;92.20;;;;;;5070979;28;20470;-44
2021/12/04 02:52:37;;;;;;;30.00;19.52;;;4.80;92.20;;;;;;5070804;28;20032;-44
2021/12/04 02:55:06;;;;;;;27.42;19.05;;;4.80;92.20;;;;;;5070531;28;20373;-43
2021/12/04 02:57:37;;;;;;;31.13;20.25;;;4.80;92.20;;;;;;5071861;28;20032;-43
2021/12/04 03:00:05;;;;;;;29.55;19.75;;;4.80;92.20;;;;;;5091822;28;20119;-45
2021/12/04 03:02:32;;;;;;;29.58;18.77;;;4.70;92.10;;;;;;5069333;28;20036;-44
2021/12/04 03:05:02;;;;;;;27.45;18.60;;;4.80;92.20;;;;;;5070882;28;20031;-47
2021/12/04 03:07:28;;;;;;;;;;;4.80;92.20;;;;;;5062449;28;20032;-44
2021/12/04 03:09:55;;;;;;;25.80;17.02;;;4.80;92.20;;;;;;5071051;28;19927;-46
2021/12/04 03:12:23;;;;;;;27.92;18.30;;;4.80;92.10;;;;;;5053692;28;20020;-49
2021/12/04 03:14:51;;;;;;;28.33;18.60;;;4.80;92.20;;;;;;5070821;28;20411;-52
2021/12/04 03:17:21;;;;;;;23.98;17.00;;;4.80;92.20;;;;;;5064134;28;20071;-50
2021/12/04 03:19:52;;;;;;;28.45;18.75;;;4.80;92.10;;;;;;5053948;28;20032;-51
2021/12/04 03:22:23;;;;;;;23.42;17.02;;;4.80;92.10;;;;;;5070774;28;20024;-52
2021/12/04 03:24:51;;;;;;;26.75;16.17;;;4.90;92.10;;;;;;5071110;28;20107;-51
2021/12/04 03:27:19;;;;;;;25.13;16.52;;;4.80;92.10;;;;;;5070694;28;20035;-57
2021/12/04 03:29:55;;;;;;;25.27;16.25;;;4.80;92.00;;;;;;5070592;28;20269;-56
2021/12/04 03:32:49;;;;;;;25.38;16.77;;;4.80;92.00;;;;;;5070498;28;20025;-54
2021/12/04 03:40:38;;;;;;;23.20;14.95;;;4.80;91.90;;;;;;5056931;28;20365;-55
2021/12/04 03:43:10;;;;;;;23.80;15.23;;;4.80;91.90;;;;;;5070399;28;20396;-55
2021/12/04 03:45:40;;;;;;;22.30;14.38;;;4.90;92.00;;;;;;5070606;28;20028;-52
2021/12/04 03:48:13;;;;;;;23.40;15.25;;;4.90;91.90;;;;;;5070430;28;20525;-59
2021/12/04 03:50:42;;;;;;;25.17;15.02;;;4.80;91.80;;;;;;5066029;28;20036;-58
2021/12/04 03:53:09;;;;;;;23.52;14.98;;;4.80;91.90;;;;;;5070303;28;20037;-59
2021/12/04 03:55:36;;;;;;;25.52;16.92;;;4.80;91.90;;;;;;5070315;28;20358;-59
2021/12/04 03:58:03;;;;;;;23.42;16.45;;;4.80;91.90;;;;;;5062549;28;20376;-59
2021/12/04 04:00:29;;;;;;;22.80;15.75;;;4.80;91.90;;;;;;5070035;28;20134;-58
2021/12/04 04:02:59;;;;;;;23.23;16.38;;;4.80;91.90;;;;;;5070282;28;20038;-59
2021/12/04 04:05:27;;;;;;;24.73;16.35;;;4.80;92.00;;;;;;5069986;28;20054;-58
2021/12/04 04:07:56;;;;;;;24.98;17.13;;;4.80;91.90;;;;;;5070191;28;20024;-58
2021/12/04 04:10:23;;;;;;;31.00;15.90;;;4.80;91.90;;;;;;5069763;28;20032;-58
2021/12/04 04:12:50;;;;;;;26.17;16.92;;;4.80;91.90;;;;;;5069913;28;20041;-57
2021/12/04 04:15:18;;;;;;;26.90;17.23;;;4.80;92.00;;;;;;5069693;28;20033;-59
2021/12/04 04:17:45;;;;;;;30.50;18.58;;;4.80;91.90;;;;;;5059205;28;20028;-57
2021/12/04 04:20:15;;;;;;;31.92;20.25;;;4.80;91.90;;;;;;5055512;28;20587;-57
2021/12/04 04:22:45;;;;;;;28.08;19.45;;;4.80;92.00;;;;;;5069186;28;20044;-55
2021/12/04 04:25:14;;;;;;;35.95;21.35;;;4.80;92.00;;;;;;5070117;28;20476;-52
2021/12/04 04:27:42;;;;;;;34.70;20.27;;;4.80;92.00;;;;;;5068454;28;20101;-55
2021/12/04 04:30:14;;;;;;;37.85;22.42;;;4.80;92.00;;;;;;5057416;28;20062;-51
2021/12/04 04:32:43;;;;;;;37.25;21.45;;;4.70;91.90;;;;;;5069519;28;20032;-56
2021/12/04 04:35:15;;;;;;;39.00;21.23;;;4.70;92.00;;;;;;5069755;28;20029;-54
2021/12/04 04:38:02;;;;;;;39.55;22.40;;;4.70;92.10;;;;;;5069349;28;20032;-55
2021/12/04 05:15:45;;;;;;;41.80;23.65;;;4.70;92.30;;;;;;5068337;28;20021;-53
2021/12/04 05:21:06;;;;;;;40.08;22.88;;;4.70;92.30;;;;;;5067115;28;20048;-48
2021/12/04 05:23:52;;;;;;;39.50;21.95;;;4.70;92.30;;;;;;5067551;28;20024;-49
2021/12/04 05:26:25;;;;;;;39.00;21.23;;;4.70;92.30;;;;;;5068024;28;20032;-49
2021/12/04 05:28:53;;;;;;;42.75;24.77;;;4.70;92.30;;;;;;5041577;28;20045;-49
2021/12/04 05:31:20;;;;;;;41.15;21.98;;;4.60;92.40;;;;;;5036976;28;20083;-47
2021/12/04 05:33:49;;;;;;;41.47;21.85;;;4.70;92.40;;;;;;5038316;28;20405;-46
2021/12/04 05:36:16;;;;;;;39.15;23.95;;;4.70;92.40;;;;;;5037264;28;20027;-46
2021/12/04 05:38:44;;;;;;;36.35;21.38;;;4.70;92.40;;;;;;5038346;28;20447;-46
2021/12/04 05:41:12;;;;;;;32.92;20.85;;;4.70;92.40;;;;;;5043016;28;20105;-47
2021/12/04 05:43:39;;;;;;;35.70;21.75;;;4.70;92.40;;;;;;5041193;28;20032;-48
2021/12/04 05:46:16;;;;;;;42.00;23.35;;;4.70;92.40;;;;;;5043141;28;20040;-47
2021/12/04 05:48:59;;;;;;;35.75;22.15;;;4.70;92.30;;;;;;5038616;28;20454;-46
2021/12/04 05:54:30;;;;;;;38.13;22.48;;;4.70;92.40;;;;;;5032604;28;20032;-48
2021/12/04 05:56:56;;;;;;;39.47;21.05;;;4.60;92.40;;;;;;5030818;28;20025;-48
2021/12/04 05:59:23;;;;;;;40.78;21.85;;;4.60;92.40;;;;;;5047467;28;20516;-46
2021/12/04 06:01:49;;;;;;;40.85;21.13;;;4.60;92.40;;;;;;5013146;28;20160;-46
2021/12/04 06:04:15;;;;;;;34.45;21.50;;;4.60;92.30;;;;;;5039154;28;20034;-46
2021/12/04 06:06:44;;;;;;;36.55;21.55;;;4.60;92.40;;;;;;5038081;28;20042;-48
2021/12/04 06:09:09;;;;;;;36.90;22.13;;;4.60;92.40;;;;;;5041479;28;20024;-46
2021/12/04 06:11:36;;;;;;;34.13;21.17;;;4.60;92.40;;;;;;5036682;28;20327;-46
2021/12/04 06:14:04;;;;;;;38.20;20.17;;;4.60;92.40;;;;;;5040883;28;20034;-48
2021/12/04 06:16:31;;;;;;;36.78;19.73;;;4.60;92.50;;;;;;5032593;28;20029;-46
2021/12/04 06:19:05;;;;;;;35.08;21.33;;;4.60;92.40;;;;;;5033286;28;20055;-45
2021/12/04 06:24:17;;;;;;;34.25;20.60;;;4.60;92.50;;;;;;5040759;28;20045;-50
2021/12/04 06:26:45;;;;;;;35.13;21.02;;;4.60;92.40;;;;;;5038554;28;20056;-47
2021/12/04 06:29:14;;;;;;;38.78;22.00;;;4.60;92.30;;;;;;5064635;28;20385;-50
2021/12/04 06:31:41;;;;;;;29.45;18.90;;;4.50;92.40;;;;;;5072075;28;20108;-46
2021/12/04 06:34:10;;;;;;;29.85;19.10;;;4.50;92.40;;;;;;5069183;28;20033;-46
2021/12/04 06:36:37;;;;;;;37.38;20.85;;;4.60;92.50;;;;;;5070956;28;20055;-47
2021/12/04 06:39:05;;;;;;;31.80;19.40;;;4.50;92.40;;;;;;5054200;28;20120;-53
2021/12/04 06:41:34;;;;;;;32.75;19.17;;;4.50;92.40;;;;;;5071361;28;20028;-50
2021/12/04 06:44:02;;;;;;;33.65;20.85;;;4.50;92.40;;;;;;5071214;28;20454;-45
2021/12/04 06:46:30;;;;;;;29.35;18.05;;;4.50;92.30;;;;;;5063910;28;20060;-47
2021/12/04 06:51:37;;;;;;;27.52;17.73;;;4.50;92.40;;;;;;5071094;28;20038;-45
2021/12/04 06:54:12;;;;;;;27.52;17.83;;;4.50;92.30;;;;;;5071678;28;20110;-44
2021/12/04 06:56:43;;;;;;;30.52;17.65;;;4.50;92.30;;;;;;5070668;28;20025;-47
2021/12/04 06:59:13;;;;;;;30.05;18.50;;;4.60;92.40;;;;;;5085611;28;20142;-48
2021/12/04 07:01:41;;;;;;;24.98;16.58;;;4.60;92.30;;;;;;5073661;28;20021;-48
2021/12/04 07:04:09;;;;;;;29.33;18.05;;;4.60;92.30;;;;;;5067642;28;20044;-48
2021/12/04 07:06:36;;;;;;;30.17;17.35;;;4.50;92.30;;;;;;5070424;28;20031;-47
2021/12/04 07:09:04;;;;;;;39.55;19.77;;;4.60;92.30;;;;;;5071091;28;20052;-46
2021/12/04 07:11:30;;;;;;;32.35;18.88;;;4.60;92.30;;;;;;5071074;28;20059;-47
2021/12/04 07:13:57;;;;;;;35.22;19.70;;;4.60;92.30;;;;;;5070478;28;20028;-47
2021/12/04 07:16:24;;;;;;;31.77;18.55;;;4.50;92.20;;;;;;5054044;28;20097;-47
2021/12/04 07:18:51;;;;;;;34.30;19.13;;;4.50;92.20;;;;;;5070630;28;20047;-46
2021/12/04 07:21:18;;;;;;;33.40;19.95;;;4.50;92.20;;;;;;5061289;28;20028;-47
2021/12/04 07:23:46;;;;;;;29.40;19.00;;;4.50;92.20;;;;;;5071287;28;20021;-45
2021/12/04 07:26:13;;;;;;;35.10;19.92;;;4.60;92.20;;;;;;5070732;28;20051;-50
2021/12/04 07:28:42;;;;;;;28.83;18.92;;;4.60;92.20;;;;;;5070250;28;20058;-43
2021/12/04 07:31:09;;;;;;;30.92;19.40;;;4.60;92.20;;;;;;5070058;28;20028;-45
2021/12/04 07:33:36;;;;;;;35.00;20.17;;;4.60;92.20;;;;;;5070782;28;20049;-47
2021/12/04 07:36:04;;;;;;;33.33;19.00;;;4.60;92.20;;;;;;5061126;28;20071;-49
2021/12/04 07:38:37;;;;;;;26.35;17.30;;;4.60;92.20;;;;;;5070113;28;20024;-47
2021/12/04 07:41:04;;;;;;;27.92;18.38;;;4.60;92.20;;;;;;5069505;28;20051;-49
2021/12/04 07:43:31;;;;;;;34.25;19.95;;;4.60;92.20;;;;;;5069032;28;20119;-45
2021/12/04 07:45:58;;;;;;;34.03;21.55;;;4.60;92.20;;;;;;5061522;28;20037;-45
2021/12/04 07:48:25;;;;;;;34.15;18.17;;;4.60;92.20;;;;;;5050769;28;20461;-45
2021/12/04 07:50:53;;;;;;;30.50;18.27;;;4.60;92.20;;;;;;5066798;28;20040;-43
2021/12/04 07:53:23;;;;;;;32.72;19.88;;;4.70;92.20;;;;;;5070687;28;20029;-45
2021/12/04 07:55:49;;;;;;;;;;;4.70;92.20;;;;;;5070141;28;20051;-48
2021/12/04 07:58:16;;;;;;;31.40;20.30;;;4.70;92.10;;;;;;5059487;28;19923;-47
2021/12/04 08:00:42;;;;;;;35.15;19.27;;;4.70;92.10;;;;;;5074140;28;20189;-46
2021/12/04 08:03:09;;;;;;;31.85;17.67;;;4.70;92.10;;;;;;5069037;28;20453;-47
2021/12/04 08:05:37;;;;;;;31.83;18.77;;;4.70;92.10;;;;;;5068411;28;20188;-47
2021/12/04 08:08:04;;;;;;;33.17;19.67;;;4.60;92.00;;;;;;5069046;28;20598;-45
2021/12/04 08:10:34;;;;;;;30.40;17.45;;;4.70;92.00;;;;;;5068423;28;20068;-44
2021/12/04 08:13:02;;;;;;;29.40;18.10;;;4.60;92.00;;;;;;5064736;28;20570;-46
2021/12/04 08:15:31;;;;;;;28.37;18.23;;;4.70;92.00;;;;;;5069319;28;20041;-44
2021/12/04 08:17:58;;;;;;;30.63;18.08;;;4.60;92.00;;;;;;5055986;28;20028;-44
2021/12/04 08:20:25;;;;;;;28.08;16.63;;;4.70;92.00;;;;;;5052638;28;20182;-46
2021/12/04 08:22:52;;;;;;;28.02;18.45;;;4.60;91.80;;;;;;5069258;28;20089;-46
2021/12/04 08:25:21;;;;;;;25.10;17.77;;;4.60;91.90;;;;;;5051922;28;20089;-43
2021/12/04 08:27:49;;;;;;;28.38;19.05;;;4.70;92.00;;;;;;5065126;28;20036;-43
2021/12/04 08:30:22;;;;;;;24.75;15.68;;;4.70;91.90;;;;;;5051000;28;20048;-45
2021/12/04 08:32:52;;;;;;;24.15;15.35;;;4.70;91.80;;;;;;5061665;28;20055;-47
2021/12/04 08:35:21;;;;;;;;;;;4.80;91.70;;;;;;5069155;28;20442;-45
2021/12/04 08:37:57;;;;;;;24.10;15.00;;;4.80;91.60;;;;;;5069631;28;19908;-46
2021/12/04 08:40:26;;;;;;;25.17;16.30;;;4.90;91.60;;;;;;5069483;28;20039;-47
2021/12/04 08:42:53;;;;;;;25.20;16.63;;;4.90;91.40;;;;;;5068981;28;20029;-44
2021/12/04 08:45:20;;;;;;;23.15;14.65;;;4.70;91.10;;;;;;5069623;28;20024;-45
2021/12/04 08:47:47;;;;;;;23.75;15.90;;;4.80;91.30;;;;;;5069399;28;20032;-44
2021/12/04 08:50:18;;;;;;;25.23;14.93;;;4.80;91.40;;;;;;5060032;28;20035;-43
2021/12/04 08:52:48;;;;;;;22.75;15.90;;;4.90;91.40;;;;;;5068982;28;20024;-43
2021/12/04 08:55:16;;;;;;;27.77;17.00;;;4.90;91.40;;;;;;5069603;28;20512;-43
2021/12/04 08:57:44;;;;;;;25.25;17.83;;;4.90;91.30;;;;;;5070169;28;20419;-43
2021/12/04 09:00:21;;;;;;;26.35;17.70;;;4.90;91.30;;;;;;5069199;28;20358;-46
2021/12/04 09:02:51;;;;;;;27.20;17.73;;;4.90;91.20;;;;;;5068997;28;20024;-43
2021/12/04 09:05:20;;;;;;;26.77;17.58;;;4.90;91.00;;;;;;5068265;28;20452;-43
2021/12/04 09:07:48;;;;;;;26.27;17.63;;;4.90;91.00;;;;;;5068352;28;20570;-47
2021/12/04 09:10:16;;;;;;;30.63;17.90;;;4.90;91.10;;;;;;5067896;28;20051;-45
2021/12/04 09:12:47;;;;;;;26.30;18.00;;;4.90;91.10;;;;;;5051116;28;20109;-44
2021/12/04 09:15:19;;;;;;;25.20;16.90;;;4.90;91.20;;;;;;5068525;28;20027;-46
2021/12/04 09:17:46;;;;;;;27.52;18.23;;;4.90;91.00;;;;;;5060904;28;20078;-44
2021/12/04 09:20:16;;;;;;;27.23;19.05;;;5.00;90.90;;;;;;5068699;28;20046;-46
2021/12/04 09:22:44;;;;;;;;;;;5.00;90.90;;;;;;5067127;28;20512;-45
2021/12/04 09:25:16;;;;;;;27.67;18.40;;;4.90;90.80;;;;;;5069636;28;19904;-43
2021/12/04 09:30:49;;;;;;;29.00;19.58;;;5.00;90.80;;;;;;5056984;28;20048;-46
2021/12/04 10:01:09;;;;;;;42.22;24.02;;;5.20;90.30;;;;;;5077327;28;20054;-45
2021/12/04 10:23:29;;;;;;;44.22;24.52;;;5.10;90.40;;;;;;5066970;28;20039;-43
2021/12/04 10:34:30;;;;;;;39.00;23.73;;;5.10;90.40;;;;;;5065964;28;20051;-44
2021/12/04 10:37:13;;;;;;;37.40;22.55;;;5.00;90.30;;;;;;5070848;28;20438;-43
2021/12/04 10:39:41;;;;;;;37.40;23.08;;;5.00;90.30;;;;;;5071754;28;20589;-44
2021/12/04 10:42:16;;;;;;;38.08;23.30;;;5.10;90.20;;;;;;5071942;28;20102;-44
2021/12/04 10:44:51;;;;;;;34.50;21.90;;;5.10;90.10;;;;;;5070856;28;20068;-47
2021/12/04 10:47:23;;;;;;;36.50;21.17;;;5.10;90.00;;;;;;5069127;28;20557;-42
2021/12/04 10:50:57;;;;;;;34.30;21.52;;;5.00;89.80;;;;;;5071223;28;20040;-43
2021/12/04 10:52:57;;;;;;;33.22;21.65;;;5.10;89.80;;;;;;5049602;28;20047;-43
2021/12/04 11:03:44;;;;;;;34.17;21.98;;;5.20;90.20;;;;;;5069231;28;20450;-45
2021/12/04 11:43:57;;;;;;;20.63;15.13;;;5.70;89.10;;;;;;4959134;28;20456;-43
2021/12/04 11:46:45;;;;;;;20.60;13.75;;;5.70;88.60;;;;;;4953073;28;20370;-48
2021/12/04 11:49:24;;;;;;;22.97;15.63;;;5.70;88.20;;;;;;4950087;29;20142;-44
2021/12/04 11:52:07;;;;;;;18.67;13.27;;;5.70;87.90;;;;;;4953554;28;20023;-47
2021/12/04 11:54:52;;;;;;;19.70;14.05;;;5.70;88.20;;;;;;4974029;28;20304;-42
2021/12/04 11:57:32;;;;;;;17.05;12.52;;;5.80;88.00;;;;;;4957068;28;20106;-45
2021/12/04 12:00:21;;;;;;;24.77;17.13;;;5.90;88.30;;;;;;4949928;29;20042;-44
2021/12/04 12:02:49;;;;;;;20.88;14.55;;;5.80;88.40;;;;;;4953736;28;20559;-46
2021/12/04 12:05:19;;;;;;;22.60;15.80;;;5.90;88.00;;;;;;4957110;28;20045;-45
2021/12/04 12:07:50;;;;;;;;;;;5.80;87.90;;;;;;4937454;28;20068;-46
2021/12/04 12:10:18;;;;;;;24.33;15.30;;;5.80;87.80;;;;;;4967977;28;19988;-45
2021/12/04 12:12:48;;;;;;;25.38;16.48;;;5.70;88.10;;;;;;4964603;28;20491;-44
2021/12/04 12:15:34;;;;;;;23.13;16.83;;;5.60;88.30;;;;;;5022770;28;20115;-44
2021/12/04 12:18:19;;;;;;;26.15;18.67;;;5.60;88.50;;;;;;5068946;28;20029;-45
2021/12/04 12:23:19;;;;;;;23.63;17.48;;;5.50;88.80;;;;;;5069005;28;20113;-44
2021/12/04 12:26:00;;;;;;;26.30;18.02;;;5.50;88.80;;;;;;5069624;28;20036;-48
2021/12/04 12:37:23;;;;;;;28.02;19.13;;;5.40;89.00;;;;;;5030176;28;20026;-46
2021/12/04 12:40:04;;;;;;;27.98;19.00;;;5.40;89.10;;;;;;5028128;28;20095;-47
2021/12/04 12:42:39;;;;;;;25.38;18.05;;;5.30;89.10;;;;;;5027839;28;20036;-46
2021/12/04 12:45:21;;;;;;;29.67;20.13;;;5.40;89.20;;;;;;5029094;28;20029;-44
2021/12/04 12:47:54;;;;;;;29.70;18.75;;;5.30;89.10;;;;;;5029331;28;20030;-45
2021/12/04 12:50:41;;;;;;;28.08;19.55;;;5.30;89.20;;;;;;5029831;28;20022;-44
2021/12/04 12:53:14;;;;;;;29.58;19.95;;;5.30;89.20;;;;;;5027779;28;20037;-44
2021/12/04 12:55:43;;;;;;;29.75;21.02;;;5.30;89.20;;;;;;5028189;28;20029;-43
2021/12/04 12:58:33;;;;;;;30.33;21.27;;;5.30;89.20;;;;;;5028732;28;20021;-45
2021/12/04 13:12:49;;;;;;;30.83;18.48;;;5.30;88.90;;;;;;5023704;28;20056;-46
2021/12/04 13:15:36;;;;;;;26.58;18.08;;;5.30;88.80;;;;;;5019634;28;20167;-46
2021/12/04 13:18:21;;;;;;;29.35;20.05;;;5.30;88.80;;;;;;5023102;28;20033;-44
2021/12/04 13:20:53;;;;;;;26.20;18.15;;;5.30;88.80;;;;;;5014838;28;20251;-45
2021/12/04 13:23:23;;;;;;;29.77;18.80;;;5.30;88.70;;;;;;5018846;28;20049;-44
2021/12/04 13:25:56;;;;;;;29.33;20.10;;;5.30;88.60;;;;;;5018441;28;20346;-44
2021/12/04 13:28:26;;;;;;;24.85;16.40;;;5.30;88.50;;;;;;5042173;28;20523;-46
2021/12/04 13:30:54;;;;;;;28.25;18.88;;;5.40;88.50;;;;;;5043622;28;20040;-43
2021/12/04 13:33:20;;;;;;;29.60;18.58;;;5.40;88.60;;;;;;5040965;28;20058;-45
2021/12/04 13:35:47;;;;;;;26.33;17.55;;;5.40;88.60;;;;;;5056511;28;20028;-44
2021/12/04 13:38:21;;;;;;;24.27;18.17;;;5.40;88.60;;;;;;5056213;28;20454;-44
2021/12/04 13:40:50;;;;;;;29.58;18.63;;;5.40;88.50;;;;;;5062100;28;20041;-47
2021/12/04 13:43:20;;;;;;;30.65;17.92;;;5.40;88.60;;;;;;5061089;28;20323;-45
2021/12/04 13:46:15;;;;;;;25.80;17.52;;;5.40;88.50;;;;;;5053792;28;20035;-49
2021/12/04 13:48:42;;;;;;;28.67;18.77;;;5.50;88.30;;;;;;5054983;28;20120;-46
2021/12/04 13:51:10;;;;;;;22.83;17.65;;;5.50;88.20;;;;;;5059058;28;20033;-44
2021/12/04 13:53:40;;;;;;;28.27;17.27;;;5.50;88.30;;;;;;5064851;28;20060;-46
2021/12/04 13:56:24;;;;;;;;;;;5.50;88.30;;;;;;5062391;28;20060;-45
2021/12/04 13:59:00;;;;;;;25.67;17.50;;;5.50;88.20;;;;;;5067070;28;20275;-49
2021/12/04 14:01:29;;;;;;;26.08;17.77;;;5.50;88.30;;;;;;5063063;28;20039;-48
2021/12/04 14:04:05;;;;;;;29.37;18.73;;;5.50;88.10;;;;;;5056608;28;20029;-47
2021/12/04 14:06:32;;;;;;;22.38;16.42;;;5.40;88.20;;;;;;5061576;28;20277;-47
2021/12/04 14:09:08;;;;;;;24.60;17.00;;;5.40;88.30;;;;;;5053758;28;20127;-49
2021/12/04 14:11:40;;;;;;;23.92;16.25;;;5.40;88.30;;;;;;5043446;28;20035;-48
2021/12/04 14:14:16;;;;;;;25.45;16.33;;;5.40;88.30;;;;;;5065723;28;20055;-46
2021/12/04 14:16:45;;;;;;;25.45;17.23;;;5.30;88.30;;;;;;5065704;28;20178;-48
2021/12/04 14:19:20;;;;;;;26.92;18.08;;;5.30;88.30;;;;;;5060746;28;20067;-47
2021/12/04 14:22:16;;;;;;;24.98;17.05;;;5.30;88.50;;;;;;5063457;28;20099;-47
2021/12/04 14:24:52;;;;;;;22.55;15.00;;;5.20;88.60;;;;;;5073264;28;20040;-45
2021/12/04 14:27:27;;;;;;;23.15;14.95;;;5.20;88.50;;;;;;5055593;28;20119;-47
2021/12/04 14:29:57;;;;;;;21.48;15.25;;;5.20;88.50;;;;;;5063656;28;20037;-47
2021/12/04 14:32:28;;;;;;;22.33;14.73;;;5.10;88.50;;;;;;5059799;28;20024;-45
2021/12/04 14:35:01;;;;;;;24.30;15.75;;;5.10;88.60;;;;;;5065004;28;20034;-47
2021/12/04 14:37:34;;;;;;;22.20;15.20;;;5.10;88.80;;;;;;5048771;28;20025;-45
2021/12/04 14:40:01;;;;;;;21.42;16.33;;;5.20;88.70;;;;;;5058824;28;20094;-49
2021/12/04 14:42:31;;;;;;;25.40;17.60;;;5.10;88.60;;;;;;5059187;28;20033;-49
2021/12/04 14:45:21;;;;;;;22.33;15.35;;;5.10;88.60;;;;;;5069155;28;20489;-48
2021/12/04 14:47:53;;;;;;;;;;;5.10;88.70;;;;;;5045039;28;20350;-49
2021/12/04 14:50:20;;;;;;;23.50;16.20;;;5.20;88.70;;;;;;5071266;28;19986;-46
2021/12/04 14:52:54;;;;;;;27.00;17.10;;;5.10;88.60;;;;;;5050330;28;20031;-44
2021/12/04 14:55:41;;;;;;;25.08;17.35;;;5.20;88.70;;;;;;5068713;28;20037;-46
2021/12/04 14:58:12;;;;;;;27.33;18.25;;;5.10;88.80;;;;;;5070011;28;20461;-45
2021/12/04 15:00:45;;;;;;;26.98;17.85;;;5.10;89.00;;;;;;5070004;28;20653;-48
2021/12/04 15:03:36;;;;;;;24.92;17.45;;;5.20;89.10;;;;;;5077013;28;20459;-46
2021/12/04 15:06:07;;;;;;;24.95;18.77;;;5.10;89.20;;;;;;5068151;28;20025;-48
2021/12/04 15:08:38;;;;;;;27.13;18.15;;;5.10;89.10;;;;;;5060983;28;20039;-47
2021/12/04 15:11:09;;;;;;;31.52;19.98;;;5.10;89.30;;;;;;5070374;28;20031;-47
2021/12/04 15:13:51;;;;;;;27.02;19.27;;;5.10;89.30;;;;;;5071226;28;20326;-46
2021/12/04 15:16:20;;;;;;;27.52;19.13;;;5.00;89.40;;;;;;5070988;28;20516;-49
2021/12/04 15:18:47;;;;;;;26.75;18.92;;;5.00;89.30;;;;;;5053391;28;20086;-45
2021/12/04 15:21:18;;;;;;;26.05;19.48;;;5.00;89.40;;;;;;5071027;28;20509;-44
2021/12/04 15:23:52;;;;;;;30.30;20.30;;;5.10;89.40;;;;;;5070881;28;20020;-48
2021/12/04 15:26:24;;;;;;;29.25;18.20;;;5.10;89.40;;;;;;5053975;28;20349;-44
2021/12/04 15:28:52;;;;;;;26.67;18.75;;;5.10;89.50;;;;;;5070693;28;20127;-47
2021/12/04 15:31:21;;;;;;;30.05;19.85;;;5.10;89.50;;;;;;5070732;28;20057;-46
2021/12/04 15:33:51;;;;;;;29.47;21.97;;;5.10;89.40;;;;;;5052793;28;20021;-45
2021/12/04 15:36:39;;;;;;;32.35;21.10;;;5.10;89.30;;;;;;5052591;28;20765;-46
2021/12/04 15:39:20;;;;;;;32.05;21.42;;;5.10;89.30;;;;;;5066549;28;20024;-46
2021/12/04 15:44:44;;;;;;;27.60;20.27;;;5.10;89.30;;;;;;5069891;28;20016;-47
2021/12/04 15:55:43;;;;;;;31.23;21.35;;;5.10;89.40;;;;;;5069784;28;20067;-49
2021/12/04 15:58:20;;;;;;;32.33;21.25;;;5.10;89.30;;;;;;5069903;28;20024;-47
2021/12/04 16:00:55;;;;;;;32.35;21.20;;;5.10;89.50;;;;;;5070080;28;20028;-47
2021/12/04 16:03:24;;;;;;;28.60;20.17;;;5.10;89.50;;;;;;5069736;28;20086;-46
2021/12/04 16:05:58;;;;;;;27.20;20.38;;;5.10;89.50;;;;;;5069861;28;20509;-44
2021/12/04 16:08:26;;;;;;;27.13;20.60;;;5.10;89.50;;;;;;5069618;28;20041;-44
2021/12/04 16:10:52;;;;;;;26.10;19.25;;;5.10;89.60;;;;;;5070066;28;20041;-50
2021/12/04 16:13:26;;;;;;;28.25;19.27;;;5.10;89.60;;;;;;5069756;28;20025;-45
2021/12/04 16:15:53;;;;;;;28.63;20.92;;;5.10;89.60;;;;;;5065570;28;20029;-47
2021/12/04 16:18:24;;;;;;;23.98;17.70;;;5.10;89.60;;;;;;5069873;28;20047;-45
2021/12/04 16:20:50;;;;;;;27.13;19.73;;;5.10;89.70;;;;;;5069843;28;20042;-49
2021/12/04 16:23:17;;;;;;;29.55;19.15;;;5.10;89.70;;;;;;5067842;28;20028;-46